sensor_id;sensor_type;location;lat;lon;timestamp;pressure;altitude;pressure_sealevel;temperature;humidity
6208;BME280;3137;51.550;7.060;2023-07-20T00:02:05;76290.59;;;-145.94;66.83
6208;BME280;3137;51.550;7.060;2023-07-20T00:04:33;76294.66;;;-145.94;67.34
6208;BME280;3137;51.550;7.060;2023-07-20T00:07:00;76284.47;;;-145.94;66.97
6208;BME280;3137;51.550;7.060;2023-07-20T00:09:29;76292.63;;;-145.94;67.00
6208;BME280;3137;51.550;7.060;2023-07-20T00:11:56;76284.47;;;-145.94;67.27
6208;BME280;3137;51.550;7.060;2023-07-20T00:14:22;76274.28;;;-145.94;67.10
6208;BME280;3137;51.550;7.060;2023-07-20T00:16:51;76280.38;;;-145.94;66.94
6208;BME280;3137;51.550;7.060;2023-07-20T00:19:26;76270.19;;;-145.94;66.80
6208;BME280;3137;51.550;7.060;2023-07-20T00:21:53;76272.22;;;-145.94;67.45
6208;BME280;3137;51.550;7.060;2023-07-20T00:24:20;76274.28;;;-145.94;66.99
6208;BME280;3137;51.550;7.060;2023-07-20T00:26:47;76276.31;;;-145.94;67.11
6208;BME280;3137;51.550;7.060;2023-07-20T00:29:14;76276.31;;;-145.94;67.57
6208;BME280;3137;51.550;7.060;2023-07-20T00:31:40;76278.34;;;-145.94;67.60
6208;BME280;3137;51.550;7.060;2023-07-20T00:34:07;76276.31;;;-145.94;67.97
6208;BME280;3137;51.550;7.060;2023-07-20T00:36:34;76268.16;;;-145.94;67.45
6208;BME280;3137;51.550;7.060;2023-07-20T00:39:02;76268.16;;;-145.94;67.71
6208;BME280;3137;51.550;7.060;2023-07-20T00:41:29;76270.19;;;-145.94;68.15
6208;BME280;3137;51.550;7.060;2023-07-20T00:43:56;76282.44;;;-145.94;68.45
6208;BME280;3137;51.550;7.060;2023-07-20T00:46:23;76278.34;;;-145.94;67.91
6208;BME280;3137;51.550;7.060;2023-07-20T00:48:52;76270.19;;;-145.94;68.30
6208;BME280;3137;51.550;7.060;2023-07-20T00:51:20;76280.38;;;-145.94;68.02
6208;BME280;3137;51.550;7.060;2023-07-20T00:53:47;76282.44;;;-145.94;68.02
6208;BME280;3137;51.550;7.060;2023-07-20T00:56:15;76278.34;;;-145.94;68.31
6208;BME280;3137;51.550;7.060;2023-07-20T00:58:42;76290.59;;;-145.94;68.72
6208;BME280;3137;51.550;7.060;2023-07-20T01:01:09;76286.50;;;-145.94;68.66
6208;BME280;3137;51.550;7.060;2023-07-20T01:03:35;76286.50;;;-145.94;68.87
6208;BME280;3137;51.550;7.060;2023-07-20T01:06:35;76290.59;;;-145.94;68.82
6208;BME280;3137;51.550;7.060;2023-07-20T01:09:19;76284.47;;;-145.94;69.00
6208;BME280;3137;51.550;7.060;2023-07-20T01:12:04;76290.59;;;-145.94;68.89
6208;BME280;3137;51.550;7.060;2023-07-20T01:14:31;76288.53;;;-145.94;68.98
6208;BME280;3137;51.550;7.060;2023-07-20T01:16:58;76286.50;;;-145.94;69.20
6208;BME280;3137;51.550;7.060;2023-07-20T01:19:25;76280.38;;;-145.94;69.30
6208;BME280;3137;51.550;7.060;2023-07-20T01:21:59;76278.34;;;-145.94;68.43
6208;BME280;3137;51.550;7.060;2023-07-20T01:27:26;76276.31;;;-145.94;68.63
6208;BME280;3137;51.550;7.060;2023-07-20T01:30:14;76272.22;;;-145.94;68.65
6208;BME280;3137;51.550;7.060;2023-07-20T01:32:42;76270.19;;;-145.94;68.47
6208;BME280;3137;51.550;7.060;2023-07-20T01:35:11;76280.38;;;-145.94;68.82
6208;BME280;3137;51.550;7.060;2023-07-20T01:37:43;76282.44;;;-145.94;68.63
6208;BME280;3137;51.550;7.060;2023-07-20T01:40:12;76282.44;;;-145.94;69.02
6208;BME280;3137;51.550;7.060;2023-07-20T01:42:44;76294.66;;;-145.94;68.65
6208;BME280;3137;51.550;7.060;2023-07-20T01:45:11;76280.38;;;-145.94;68.87
6208;BME280;3137;51.550;7.060;2023-07-20T01:47:37;76288.53;;;-145.94;69.01
6208;BME280;3137;51.550;7.060;2023-07-20T01:50:05;76278.34;;;-145.94;68.71
6208;BME280;3137;51.550;7.060;2023-07-20T01:52:32;76286.50;;;-145.94;68.67
6208;BME280;3137;51.550;7.060;2023-07-20T01:54:58;76276.31;;;-145.94;69.07
6208;BME280;3137;51.550;7.060;2023-07-20T01:57:25;76278.34;;;-145.94;68.50
6208;BME280;3137;51.550;7.060;2023-07-20T01:59:51;76280.38;;;-145.94;69.39
6208;BME280;3137;51.550;7.060;2023-07-20T02:02:18;76286.50;;;-145.94;69.48
6208;BME280;3137;51.550;7.060;2023-07-20T02:04:44;76280.38;;;-145.94;69.45
6208;BME280;3137;51.550;7.060;2023-07-20T02:07:11;76284.47;;;-145.94;69.86
6208;BME280;3137;51.550;7.060;2023-07-20T02:09:37;76272.22;;;-145.94;69.62
6208;BME280;3137;51.550;7.060;2023-07-20T02:12:07;76272.22;;;-145.94;69.69
6208;BME280;3137;51.550;7.060;2023-07-20T02:14:33;76262.03;;;-145.94;69.39
6208;BME280;3137;51.550;7.060;2023-07-20T02:17:00;76284.47;;;-145.94;70.40
6208;BME280;3137;51.550;7.060;2023-07-20T02:19:28;76298.72;;;-145.94;70.68
6208;BME280;3137;51.550;7.060;2023-07-20T02:21:54;76304.84;;;-145.94;71.18
6208;BME280;3137;51.550;7.060;2023-07-20T02:24:21;76308.94;;;-145.94;71.51
6208;BME280;3137;51.550;7.060;2023-07-20T02:26:47;76310.97;;;-145.94;71.18
6208;BME280;3137;51.550;7.060;2023-07-20T02:29:14;76308.94;;;-145.94;71.54
6208;BME280;3137;51.550;7.060;2023-07-20T02:31:40;76315.03;;;-145.94;72.31
6208;BME280;3137;51.550;7.060;2023-07-20T02:34:09;76331.34;;;-145.94;72.42
6208;BME280;3137;51.550;7.060;2023-07-20T02:36:36;76339.50;;;-145.94;72.94
6208;BME280;3137;51.550;7.060;2023-07-20T02:39:02;76345.63;;;-145.94;73.02
6208;BME280;3137;51.550;7.060;2023-07-20T02:41:31;76349.72;;;-145.94;73.27
6208;BME280;3137;51.550;7.060;2023-07-20T02:43:57;76357.88;;;-145.94;73.96
6208;BME280;3137;51.550;7.060;2023-07-20T02:46:23;76357.88;;;-145.94;73.94
6208;BME280;3137;51.550;7.060;2023-07-20T02:48:50;76345.63;;;-145.94;74.38
6208;BME280;3137;51.550;7.060;2023-07-20T02:51:17;76349.72;;;-145.94;74.51
6208;BME280;3137;51.550;7.060;2023-07-20T02:53:43;76355.81;;;-145.94;74.79
6208;BME280;3137;51.550;7.060;2023-07-20T02:56:10;76363.97;;;-145.94;74.79
6208;BME280;3137;51.550;7.060;2023-07-20T02:58:41;76376.22;;;-145.94;74.90
6208;BME280;3137;51.550;7.060;2023-07-20T03:01:09;76376.22;;;-145.94;74.90
6208;BME280;3137;51.550;7.060;2023-07-20T03:03:37;76368.06;;;-145.94;75.65
6208;BME280;3137;51.550;7.060;2023-07-20T03:06:05;76374.19;;;-145.94;75.24
6208;BME280;3137;51.550;7.060;2023-07-20T03:08:32;76372.13;;;-145.94;75.86
6208;BME280;3137;51.550;7.060;2023-07-20T03:10:58;76378.25;;;-145.94;75.66
6208;BME280;3137;51.550;7.060;2023-07-20T03:13:24;76386.41;;;-145.94;76.04
6208;BME280;3137;51.550;7.060;2023-07-20T03:15:53;76384.38;;;-145.94;76.18
6208;BME280;3137;51.550;7.060;2023-07-20T03:18:19;76382.34;;;-145.94;76.10
6208;BME280;3137;51.550;7.060;2023-07-20T03:20:45;76376.22;;;-145.94;76.00
6208;BME280;3137;51.550;7.060;2023-07-20T03:23:12;76384.38;;;-145.94;76.07
6208;BME280;3137;51.550;7.060;2023-07-20T03:25:39;76384.38;;;-145.94;75.80
6208;BME280;3137;51.550;7.060;2023-07-20T03:28:06;76392.53;;;-145.94;76.28
6208;BME280;3137;51.550;7.060;2023-07-20T03:30:32;76396.59;;;-145.94;76.01
6208;BME280;3137;51.550;7.060;2023-07-20T03:32:59;76398.66;;;-145.94;76.35
6208;BME280;3137;51.550;7.060;2023-07-20T03:35:25;76400.69;;;-145.94;76.88
6208;BME280;3137;51.550;7.060;2023-07-20T03:37:52;76404.75;;;-145.94;77.00
6208;BME280;3137;51.550;7.060;2023-07-20T03:40:18;76414.94;;;-145.94;76.89
6208;BME280;3137;51.550;7.060;2023-07-20T03:42:45;76412.91;;;-145.94;76.92
6208;BME280;3137;51.550;7.060;2023-07-20T03:45:12;76406.81;;;-145.94;76.90
6208;BME280;3137;51.550;7.060;2023-07-20T03:47:39;76414.94;;;-145.94;77.22
6208;BME280;3137;51.550;7.060;2023-07-20T03:50:06;76412.91;;;-145.94;77.10
6208;BME280;3137;51.550;7.060;2023-07-20T03:52:33;76414.94;;;-145.94;77.23
6208;BME280;3137;51.550;7.060;2023-07-20T03:54:59;76410.88;;;-145.94;76.76
6208;BME280;3137;51.550;7.060;2023-07-20T03:57:26;76408.84;;;-145.94;76.83
6208;BME280;3137;51.550;7.060;2023-07-20T03:59:52;76417.00;;;-145.94;76.93
6208;BME280;3137;51.550;7.060;2023-07-20T04:02:19;76429.22;;;-145.94;76.45
6208;BME280;3137;51.550;7.060;2023-07-20T04:04:45;76427.19;;;-145.94;76.74
6208;BME280;3137;51.550;7.060;2023-07-20T04:07:12;76431.28;;;-145.94;76.47
6208;BME280;3137;51.550;7.060;2023-07-20T04:09:41;76425.16;;;-145.94;76.65
6208;BME280;3137;51.550;7.060;2023-07-20T04:12:08;76433.31;;;-145.94;76.81
6208;BME280;3137;51.550;7.060;2023-07-20T04:14:34;76423.13;;;-145.94;77.04
6208;BME280;3137;51.550;7.060;2023-07-20T04:17:00;76431.28;;;-145.94;76.72
6208;BME280;3137;51.550;7.060;2023-07-20T04:19:27;76441.47;;;-145.94;76.38
6208;BME280;3137;51.550;7.060;2023-07-20T04:21:53;76437.38;;;-145.94;76.61
6208;BME280;3137;51.550;7.060;2023-07-20T04:24:20;76439.41;;;-145.94;76.80
6208;BME280;3137;51.550;7.060;2023-07-20T04:26:47;76433.31;;;-145.94;76.27
6208;BME280;3137;51.550;7.060;2023-07-20T04:29:13;76433.31;;;-145.94;76.47
6208;BME280;3137;51.550;7.060;2023-07-20T04:31:42;76435.34;;;-145.94;76.43
6208;BME280;3137;51.550;7.060;2023-07-20T04:34:10;76431.28;;;-145.94;76.76
6208;BME280;3137;51.550;7.060;2023-07-20T04:36:37;76427.19;;;-145.94;76.49
6208;BME280;3137;51.550;7.060;2023-07-20T04:39:04;76441.47;;;-145.94;75.89
6208;BME280;3137;51.550;7.060;2023-07-20T04:41:42;76457.78;;;-145.94;75.94
6208;BME280;3137;51.550;7.060;2023-07-20T04:44:08;76461.84;;;-145.94;75.66
6208;BME280;3137;51.550;7.060;2023-07-20T04:46:35;76463.88;;;-145.94;76.00
6208;BME280;3137;51.550;7.060;2023-07-20T04:49:02;76472.03;;;-145.94;76.03
6208;BME280;3137;51.550;7.060;2023-07-20T04:51:33;76472.03;;;-145.94;75.94
6208;BME280;3137;51.550;7.060;2023-07-20T04:54:00;76476.13;;;-145.94;75.76
6208;BME280;3137;51.550;7.060;2023-07-20T04:56:31;76476.13;;;-145.94;76.04
6208;BME280;3137;51.550;7.060;2023-07-20T04:58:58;76478.16;;;-145.94;75.99
6208;BME280;3137;51.550;7.060;2023-07-20T05:01:24;76478.16;;;-145.94;76.37
6208;BME280;3137;51.550;7.060;2023-07-20T05:03:53;76476.13;;;-145.94;75.86
6208;BME280;3137;51.550;7.060;2023-07-20T05:06:20;76476.13;;;-145.94;76.25
6208;BME280;3137;51.550;7.060;2023-07-20T05:08:47;76476.13;;;-145.94;76.51
6208;BME280;3137;51.550;7.060;2023-07-20T05:11:14;76480.19;;;-145.94;76.15
6208;BME280;3137;51.550;7.060;2023-07-20T05:13:41;76478.16;;;-145.94;76.05
6208;BME280;3137;51.550;7.060;2023-07-20T05:16:07;76480.19;;;-145.94;76.01
6208;BME280;3137;51.550;7.060;2023-07-20T05:18:34;76476.13;;;-145.94;76.08
6208;BME280;3137;51.550;7.060;2023-07-20T05:21:01;76482.25;;;-145.94;75.53
6208;BME280;3137;51.550;7.060;2023-07-20T05:23:27;76478.16;;;-145.94;75.43
6208;BME280;3137;51.550;7.060;2023-07-20T05:25:55;76484.28;;;-145.94;75.89
6208;BME280;3137;51.550;7.060;2023-07-20T05:28:23;76476.13;;;-145.94;75.90
6208;BME280;3137;51.550;7.060;2023-07-20T05:30:52;76476.13;;;-145.94;75.57
6208;BME280;3137;51.550;7.060;2023-07-20T05:33:19;76478.16;;;-145.94;75.49
6208;BME280;3137;51.550;7.060;2023-07-20T05:35:47;76484.28;;;-145.94;75.63
6208;BME280;3137;51.550;7.060;2023-07-20T05:38:13;76482.25;;;-145.94;75.44
6208;BME280;3137;51.550;7.060;2023-07-20T05:40:41;76480.19;;;-145.94;75.48
6208;BME280;3137;51.550;7.060;2023-07-20T05:43:11;76482.25;;;-145.94;75.68
6208;BME280;3137;51.550;7.060;2023-07-20T05:45:41;76484.28;;;-145.94;75.09
6208;BME280;3137;51.550;7.060;2023-07-20T05:48:08;76478.16;;;-145.94;75.16
6208;BME280;3137;51.550;7.060;2023-07-20T05:50:41;76482.25;;;-145.94;74.96
6208;BME280;3137;51.550;7.060;2023-07-20T05:53:07;76486.31;;;-145.94;74.81
6208;BME280;3137;51.550;7.060;2023-07-20T05:55:34;76476.13;;;-145.94;74.02
6208;BME280;3137;51.550;7.060;2023-07-20T05:58:00;76472.03;;;-145.94;74.04
6208;BME280;3137;51.550;7.060;2023-07-20T06:00:27;76476.13;;;-145.94;73.86
6208;BME280;3137;51.550;7.060;2023-07-20T06:02:53;76463.88;;;-145.94;74.00
6208;BME280;3137;51.550;7.060;2023-07-20T06:05:22;76453.69;;;-145.94;73.91
6208;BME280;3137;51.550;7.060;2023-07-20T06:07:52;76449.63;;;-145.94;73.42
6208;BME280;3137;51.550;7.060;2023-07-20T06:10:20;76451.66;;;-145.94;73.28
6208;BME280;3137;51.550;7.060;2023-07-20T06:12:47;76441.47;;;-145.94;73.16
6208;BME280;3137;51.550;7.060;2023-07-20T06:15:28;76451.66;;;-145.94;72.68
6208;BME280;3137;51.550;7.060;2023-07-20T06:17:55;76445.53;;;-145.94;72.95
6208;BME280;3137;51.550;7.060;2023-07-20T06:20:23;76435.34;;;-145.94;72.92
6208;BME280;3137;51.550;7.060;2023-07-20T06:22:50;76435.34;;;-145.94;71.65
6208;BME280;3137;51.550;7.060;2023-07-20T06:25:16;76433.31;;;-145.94;71.56
6208;BME280;3137;51.550;7.060;2023-07-20T06:27:43;76425.16;;;-145.94;72.00
6208;BME280;3137;51.550;7.060;2023-07-20T06:30:10;76435.34;;;-145.94;71.08
6208;BME280;3137;51.550;7.060;2023-07-20T06:32:38;76425.16;;;-145.94;70.79
6208;BME280;3137;51.550;7.060;2023-07-20T06:35:05;76439.41;;;-145.94;71.03
6208;BME280;3137;51.550;7.060;2023-07-20T06:37:32;76429.22;;;-145.94;71.03
6208;BME280;3137;51.550;7.060;2023-07-20T06:39:59;76431.28;;;-145.94;71.24
6208;BME280;3137;51.550;7.060;2023-07-20T06:42:28;76435.34;;;-145.94;70.72
6208;BME280;3137;51.550;7.060;2023-07-20T06:45:15;76441.47;;;-145.94;70.21
6208;BME280;3137;51.550;7.060;2023-07-20T06:47:42;76417.00;;;-145.94;70.30
6208;BME280;3137;51.550;7.060;2023-07-20T06:50:09;76423.13;;;-145.94;70.37
6208;BME280;3137;51.550;7.060;2023-07-20T06:52:42;76425.16;;;-145.94;68.96
6208;BME280;3137;51.550;7.060;2023-07-20T06:55:09;76412.91;;;-145.94;69.28
6208;BME280;3137;51.550;7.060;2023-07-20T06:57:35;76431.28;;;-145.94;68.88
6208;BME280;3137;51.550;7.060;2023-07-20T07:00:02;76435.34;;;-145.94;69.41
6208;BME280;3137;51.550;7.060;2023-07-20T07:02:30;76439.41;;;-145.94;69.47
6208;BME280;3137;51.550;7.060;2023-07-20T07:04:56;76441.47;;;-145.94;69.37
6208;BME280;3137;51.550;7.060;2023-07-20T07:07:43;76435.34;;;-145.94;69.66
6208;BME280;3137;51.550;7.060;2023-07-20T07:10:09;76427.19;;;-145.94;69.31
6208;BME280;3137;51.550;7.060;2023-07-20T07:12:36;76435.34;;;-145.94;67.66
6208;BME280;3137;51.550;7.060;2023-07-20T07:15:04;76423.13;;;-145.94;66.73
6208;BME280;3137;51.550;7.060;2023-07-20T07:17:32;76427.19;;;-145.94;66.90
6208;BME280;3137;51.550;7.060;2023-07-20T07:20:00;76433.31;;;-145.94;66.81
6208;BME280;3137;51.550;7.060;2023-07-20T07:22:26;76431.28;;;-145.94;67.88
6208;BME280;3137;51.550;7.060;2023-07-20T07:24:52;76433.31;;;-145.94;67.50
6208;BME280;3137;51.550;7.060;2023-07-20T07:27:20;76421.06;;;-145.94;66.78
6208;BME280;3137;51.550;7.060;2023-07-20T07:29:46;76419.03;;;-145.94;66.52
6208;BME280;3137;51.550;7.060;2023-07-20T07:32:15;76421.06;;;-145.94;66.81
6208;BME280;3137;51.550;7.060;2023-07-20T07:34:41;76423.13;;;-145.94;66.85
6208;BME280;3137;51.550;7.060;2023-07-20T07:37:08;76419.03;;;-145.94;67.61
6208;BME280;3137;51.550;7.060;2023-07-20T07:39:34;76433.31;;;-145.94;66.73
6208;BME280;3137;51.550;7.060;2023-07-20T07:42:01;76437.38;;;-145.94;66.20
6208;BME280;3137;51.550;7.060;2023-07-20T07:44:27;76437.38;;;-145.94;66.10
6208;BME280;3137;51.550;7.060;2023-07-20T07:46:54;76443.50;;;-145.94;67.10
6208;BME280;3137;51.550;7.060;2023-07-20T07:49:21;76447.56;;;-145.94;66.20
6208;BME280;3137;51.550;7.060;2023-07-20T07:51:47;76445.53;;;-145.94;65.19
6208;BME280;3137;51.550;7.060;2023-07-20T07:54:14;76437.38;;;-145.94;65.08
6208;BME280;3137;51.550;7.060;2023-07-20T07:56:41;76419.03;;;-145.94;65.10
6208;BME280;3137;51.550;7.060;2023-07-20T07:59:08;76392.53;;;-145.94;65.61
6208;BME280;3137;51.550;7.060;2023-07-20T08:01:34;76390.50;;;-145.94;64.79
6208;BME280;3137;51.550;7.060;2023-07-20T08:04:01;76386.41;;;-145.94;64.52
6208;BME280;3137;51.550;7.060;2023-07-20T08:06:27;76370.09;;;-145.94;64.25
6208;BME280;3137;51.550;7.060;2023-07-20T08:08:54;76388.44;;;-145.94;63.02
6208;BME280;3137;51.550;7.060;2023-07-20T08:11:20;76398.66;;;-145.94;63.79
6208;BME280;3137;51.550;7.060;2023-07-20T08:13:47;76406.81;;;-145.94;63.29
6208;BME280;3137;51.550;7.060;2023-07-20T08:16:13;76404.75;;;-145.94;63.62
6208;BME280;3137;51.550;7.060;2023-07-20T08:18:40;76394.56;;;-145.94;64.45
6208;BME280;3137;51.550;7.060;2023-07-20T08:21:07;76406.81;;;-145.94;62.63
6208;BME280;3137;51.550;7.060;2023-07-20T08:23:34;76398.66;;;-145.94;61.88
6208;BME280;3137;51.550;7.060;2023-07-20T08:26:00;76400.69;;;-145.94;61.00
6208;BME280;3137;51.550;7.060;2023-07-20T08:28:27;76404.75;;;-145.94;61.75
6208;BME280;3137;51.550;7.060;2023-07-20T08:30:55;76400.69;;;-145.94;62.02
6208;BME280;3137;51.550;7.060;2023-07-20T08:33:21;76408.84;;;-145.94;61.03
6208;BME280;3137;51.550;7.060;2023-07-20T08:35:49;76412.91;;;-145.94;61.44
6208;BME280;3137;51.550;7.060;2023-07-20T08:38:16;76408.84;;;-145.94;61.53
6208;BME280;3137;51.550;7.060;2023-07-20T08:40:44;76414.94;;;-145.94;61.75
6208;BME280;3137;51.550;7.060;2023-07-20T08:43:12;76402.72;;;-145.94;61.97
6208;BME280;3137;51.550;7.060;2023-07-20T08:45:40;76392.53;;;-145.94;60.59
6208;BME280;3137;51.550;7.060;2023-07-20T08:48:07;76386.41;;;-145.94;60.30
6208;BME280;3137;51.550;7.060;2023-07-20T08:50:35;76351.75;;;-145.94;59.12
6208;BME280;3137;51.550;7.060;2023-07-20T08:53:02;76341.56;;;-145.94;58.76
6208;BME280;3137;51.550;7.060;2023-07-20T08:55:29;76333.41;;;-145.94;58.43
6208;BME280;3137;51.550;7.060;2023-07-20T08:57:58;76321.16;;;-145.94;59.48
6208;BME280;3137;51.550;7.060;2023-07-20T09:00:25;76317.09;;;-145.94;59.08
6208;BME280;3137;51.550;7.060;2023-07-20T09:02:53;76325.25;;;-145.94;57.90
6208;BME280;3137;51.550;7.060;2023-07-20T09:05:22;76325.25;;;-145.94;57.61
6208;BME280;3137;51.550;7.060;2023-07-20T09:07:51;76317.09;;;-145.94;57.24
6208;BME280;3137;51.550;7.060;2023-07-20T09:10:17;76302.81;;;-145.94;56.78
6208;BME280;3137;51.550;7.060;2023-07-20T09:12:45;76294.66;;;-145.94;55.55
6208;BME280;3137;51.550;7.060;2023-07-20T09:15:11;76294.66;;;-145.94;54.89
6208;BME280;3137;51.550;7.060;2023-07-20T09:17:38;76282.44;;;-145.94;55.05
6208;BME280;3137;51.550;7.060;2023-07-20T09:20:07;76274.28;;;-145.94;54.97
6208;BME280;3137;51.550;7.060;2023-07-20T09:22:38;76274.28;;;-145.94;53.67
6208;BME280;3137;51.550;7.060;2023-07-20T09:25:17;76272.22;;;-145.94;54.12
6208;BME280;3137;51.550;7.060;2023-07-20T09:27:49;76266.13;;;-145.94;53.92
6208;BME280;3137;51.550;7.060;2023-07-20T09:30:18;76270.19;;;-145.94;54.01
6208;BME280;3137;51.550;7.060;2023-07-20T09:32:48;76260.00;;;-145.94;55.22
6208;BME280;3137;51.550;7.060;2023-07-20T09:35:19;76253.88;;;-145.94;55.13
6208;BME280;3137;51.550;7.060;2023-07-20T09:40:40;76243.69;;;-145.94;53.89
6208;BME280;3137;51.550;7.060;2023-07-20T09:43:10;76255.91;;;-145.94;52.96
6208;BME280;3137;51.550;7.060;2023-07-20T09:45:41;76274.28;;;-145.94;52.30
6208;BME280;3137;51.550;7.060;2023-07-20T09:48:11;76266.13;;;-145.94;53.33
6208;BME280;3137;51.550;7.060;2023-07-20T09:50:43;76264.06;;;-145.94;52.28
6208;BME280;3137;51.550;7.060;2023-07-20T09:53:14;76257.97;;;-145.94;50.55
6208;BME280;3137;51.550;7.060;2023-07-20T09:55:41;76245.72;;;-145.94;52.21
6208;BME280;3137;51.550;7.060;2023-07-20T09:58:09;76223.28;;;-145.94;52.57
6208;BME280;3137;51.550;7.060;2023-07-20T10:00:37;76198.81;;;-145.94;52.75
6208;BME280;3137;51.550;7.060;2023-07-20T10:03:08;76194.75;;;-145.94;52.30
6208;BME280;3137;51.550;7.060;2023-07-20T10:05:39;76192.72;;;-145.94;52.12
6208;BME280;3137;51.550;7.060;2023-07-20T10:08:11;76196.78;;;-145.94;52.86
6208;BME280;3137;51.550;7.060;2023-07-20T10:10:42;76207.00;;;-145.94;52.92
6208;BME280;3137;51.550;7.060;2023-07-20T10:13:25;76198.81;;;-145.94;52.95
6208;BME280;3137;51.550;7.060;2023-07-20T10:16:03;76200.88;;;-145.94;51.03
6208;BME280;3137;51.550;7.060;2023-07-20T10:18:42;76202.91;;;-145.94;51.67
6208;BME280;3137;51.550;7.060;2023-07-20T10:21:11;76198.81;;;-145.94;50.49
6208;BME280;3137;51.550;7.060;2023-07-20T10:23:41;76180.47;;;-145.94;50.05
6208;BME280;3137;51.550;7.060;2023-07-20T10:26:08;76182.53;;;-145.94;49.55
6208;BME280;3137;51.550;7.060;2023-07-20T10:28:36;76166.22;;;-145.94;51.36
6208;BME280;3137;51.550;7.060;2023-07-20T10:31:04;76164.16;;;-145.94;51.26
6208;BME280;3137;51.550;7.060;2023-07-20T10:33:32;76164.16;;;-145.94;50.95
6208;BME280;3137;51.550;7.060;2023-07-20T10:36:03;76153.97;;;-145.94;49.97
6208;BME280;3137;51.550;7.060;2023-07-20T10:38:42;76145.81;;;-145.94;49.62
6208;BME280;3137;51.550;7.060;2023-07-20T10:41:28;76143.78;;;-145.94;49.48
6208;BME280;3137;51.550;7.060;2023-07-20T10:43:59;76105.03;;;-145.94;49.64
6208;BME280;3137;51.550;7.060;2023-07-20T10:46:34;76103.00;;;-145.94;47.69
6208;BME280;3137;51.550;7.060;2023-07-20T10:49:06;76109.13;;;-145.94;47.85
6208;BME280;3137;51.550;7.060;2023-07-20T10:51:43;76111.16;;;-145.94;47.40
6208;BME280;3137;51.550;7.060;2023-07-20T10:56:44;76111.16;;;-145.94;46.55
6208;BME280;3137;51.550;7.060;2023-07-20T11:01:50;76076.50;;;-145.94;49.37
6208;BME280;3137;51.550;7.060;2023-07-20T11:04:40;76080.56;;;-145.94;49.28
6208;BME280;3137;51.550;7.060;2023-07-20T11:07:07;76072.44;;;-145.94;48.91
6208;BME280;3137;51.550;7.060;2023-07-20T11:09:38;76070.38;;;-145.94;47.48
6208;BME280;3137;51.550;7.060;2023-07-20T11:12:18;76076.50;;;-145.94;47.22
6208;BME280;3137;51.550;7.060;2023-07-20T11:14:57;76078.53;;;-145.94;47.50
6208;BME280;3137;51.550;7.060;2023-07-20T11:17:31;76072.44;;;-145.94;46.63
6208;BME280;3137;51.550;7.060;2023-07-20T11:19:59;76058.16;;;-145.94;47.28
6208;BME280;3137;51.550;7.060;2023-07-20T11:22:33;76050.00;;;-145.94;48.36
6208;BME280;3137;51.550;7.060;2023-07-20T11:25:00;76043.88;;;-145.94;48.93
6208;BME280;3137;51.550;7.060;2023-07-20T11:27:26;76029.59;;;-145.94;48.14
6208;BME280;3137;51.550;7.060;2023-07-20T11:29:54;76007.19;;;-145.94;46.28
6208;BME280;3137;51.550;7.060;2023-07-20T11:32:22;76003.09;;;-145.94;46.19
6208;BME280;3137;51.550;7.060;2023-07-20T11:34:48;75999.03;;;-145.94;44.71
6208;BME280;3137;51.550;7.060;2023-07-20T11:37:16;75982.72;;;-145.94;44.28
6208;BME280;3137;51.550;7.060;2023-07-20T11:39:43;75988.84;;;-145.94;43.35
6208;BME280;3137;51.550;7.060;2023-07-20T11:42:11;75999.03;;;-145.94;42.79
6208;BME280;3137;51.550;7.060;2023-07-20T11:44:38;76007.19;;;-145.94;44.72
6208;BME280;3137;51.550;7.060;2023-07-20T11:47:07;76003.09;;;-145.94;43.85
6208;BME280;3137;51.550;7.060;2023-07-20T11:49:35;76003.09;;;-145.94;44.07
6208;BME280;3137;51.550;7.060;2023-07-20T11:52:04;75999.03;;;-145.94;44.74
6208;BME280;3137;51.550;7.060;2023-07-20T11:54:32;75988.84;;;-145.94;44.71
6208;BME280;3137;51.550;7.060;2023-07-20T11:57:01;75994.94;;;-145.94;44.49
6208;BME280;3137;51.550;7.060;2023-07-20T11:59:27;76001.06;;;-145.94;45.18
6208;BME280;3137;51.550;7.060;2023-07-20T12:01:54;75992.91;;;-145.94;45.12
6208;BME280;3137;51.550;7.060;2023-07-20T12:04:22;75982.72;;;-145.94;45.04
6208;BME280;3137;51.550;7.060;2023-07-20T12:06:49;75974.56;;;-145.94;44.18
6208;BME280;3137;51.550;7.060;2023-07-20T12:09:17;75958.25;;;-145.94;44.58
6208;BME280;3137;51.550;7.060;2023-07-20T12:11:44;75946.03;;;-145.94;45.45
6208;BME280;3137;51.550;7.060;2023-07-20T12:14:14;75948.06;;;-145.94;44.18
6208;BME280;3137;51.550;7.060;2023-07-20T12:16:43;75937.88;;;-145.94;44.62
6208;BME280;3137;51.550;7.060;2023-07-20T12:19:12;75929.72;;;-145.94;43.97
6208;BME280;3137;51.550;7.060;2023-07-20T12:21:40;75937.88;;;-145.94;44.04
6208;BME280;3137;51.550;7.060;2023-07-20T12:24:10;75937.88;;;-145.94;43.13
6208;BME280;3137;51.550;7.060;2023-07-20T12:26:37;75952.13;;;-145.94;42.97
6208;BME280;3137;51.550;7.060;2023-07-20T12:29:04;75952.13;;;-145.94;43.40
6208;BME280;3137;51.550;7.060;2023-07-20T12:31:36;75964.38;;;-145.94;42.82
6208;BME280;3137;51.550;7.060;2023-07-20T12:34:03;75972.53;;;-145.94;43.73
6208;BME280;3137;51.550;7.060;2023-07-20T12:36:29;75966.41;;;-145.94;44.42
6208;BME280;3137;51.550;7.060;2023-07-20T12:38:57;75933.78;;;-145.94;45.57
6208;BME280;3137;51.550;7.060;2023-07-20T12:41:24;75909.31;;;-145.94;45.23
6208;BME280;3137;51.550;7.060;2023-07-20T12:43:51;75905.25;;;-145.94;43.46
6208;BME280;3137;51.550;7.060;2023-07-20T12:46:17;75897.09;;;-145.94;43.44
6208;BME280;3137;51.550;7.060;2023-07-20T12:48:44;75899.13;;;-145.94;43.86
6208;BME280;3137;51.550;7.060;2023-07-20T12:51:14;75913.41;;;-145.94;43.82
6208;BME280;3137;51.550;7.060;2023-07-20T12:53:40;75913.41;;;-145.94;43.64
6208;BME280;3137;51.550;7.060;2023-07-20T12:56:07;75903.22;;;-145.94;44.35
6208;BME280;3137;51.550;7.060;2023-07-20T12:58:36;75909.31;;;-145.94;44.02
6208;BME280;3137;51.550;7.060;2023-07-20T13:01:03;75915.44;;;-145.94;42.98
6208;BME280;3137;51.550;7.060;2023-07-20T13:03:30;75919.50;;;-145.94;43.29
6208;BME280;3137;51.550;7.060;2023-07-20T13:05:59;75911.38;;;-145.94;43.79
6208;BME280;3137;51.550;7.060;2023-07-20T13:08:28;75909.31;;;-145.94;43.94
6208;BME280;3137;51.550;7.060;2023-07-20T13:10:55;75897.09;;;-145.94;43.55
6208;BME280;3137;51.550;7.060;2023-07-20T13:13:21;75878.75;;;-145.94;43.07
6208;BME280;3137;51.550;7.060;2023-07-20T13:15:48;75846.13;;;-145.94;41.42
6208;BME280;3137;51.550;7.060;2023-07-20T13:18:15;75858.34;;;-145.94;42.23